Time;durP1;ratioP1;P1;durP2;ratioP2;P2;SDS_P1;SDS_P2;PMS_P1;PMS_P2;Temp;Humidity;BMP_temperature;BMP_pressure;BME280_temperature;BME280_humidity;BME280_pressure;Samples;Min_cycle;Max_cycle;Signal;HPM_P1;HPM_P2
2022/05/26 00:01:59;;;;;;;95.85;6.58;;;;;;;9.99;80.79;100254.66;2240039;77;20939;-71
2022/05/26 00:05:00;;;;;;;5.85;5.35;;;;;;;9.95;80.61;100259.95;2244719;78;21006;-68
2022/05/26 00:08:02;;;;;;;7.65;4.85;;;;;;;9.92;80.51;100254.15;2241484;77;21539;-70
2022/05/26 00:11:11;;;;;;;6.17;5.60;;;;;;;9.85;80.29;100258.77;2245108;78;20997;-68
2022/05/26 00:14:13;;;;;;;5.45;4.95;;;;;;;9.84;80.43;100248.30;2243250;78;21446;-70
2022/05/26 00:17:17;;;;;;;5.53;5.03;;;;;;;9.83;80.56;100258.58;2246038;78;20931;-69
2022/05/26 00:20:18;;;;;;;4.53;4.12;;;;;;;9.82;80.46;100255.08;2242284;78;21022;-69
2022/05/26 00:23:19;;;;;;;6.08;5.37;;;;;;;9.78;80.31;100258.22;2242277;78;21013;-78
2022/05/26 00:26:24;;;;;;;12.53;5.83;;;;;;;9.73;80.17;100263.98;2237905;78;21008;-68
2022/05/26 00:29:25;;;;;;;6.80;5.37;;;;;;;9.69;80.25;100260.00;2246312;78;21472;-69
2022/05/26 00:32:27;;;;;;;6.95;4.90;;;;;;;9.66;80.00;100265.62;2238657;78;21097;-71
2022/05/26 00:35:28;;;;;;;6.55;5.53;;;;;;;9.61;79.95;100266.58;2240472;78;20996;-68
2022/05/26 00:38:29;;;;;;;6.60;3.90;;;;;;;9.59;80.53;100265.39;2245706;78;21457;-70
2022/05/26 00:41:31;;;;;;;5.55;3.27;;;;;;;9.57;80.27;100266.53;2239941;77;21041;-69
2022/05/26 00:44:34;;;;;;;3.80;3.50;;;;;;;9.53;80.56;100265.20;2238763;78;20990;-71
2022/05/26 00:47:41;;;;;;;5.25;3.72;;;;;;;9.50;80.59;100265.52;2242242;78;21812;-69
2022/05/26 00:50:53;;;;;;;6.03;3.95;;;;;;;9.42;80.47;100264.46;2244276;78;21049;-68
2022/05/26 00:53:59;;;;;;;3.95;3.00;;;;;;;9.39;80.65;100267.42;2255573;78;22649;-68
2022/05/26 00:57:15;;;;;;;5.90;3.85;;;;;;;9.35;80.63;100266.09;2236885;78;21013;-69
2022/05/26 01:00:21;;;;;;;6.85;5.58;;;;;;;9.34;80.70;100263.08;2235178;78;21550;-79
2022/05/26 01:03:34;;;;;;;5.47;3.67;;;;;;;9.31;80.87;100263.39;2240987;78;20982;-68
2022/05/26 01:06:40;;;;;;;6.15;4.83;;;;;;;9.32;80.84;100261.57;2240704;77;21013;-70
2022/05/26 01:09:42;;;;;;;6.45;4.90;;;;;;;9.31;80.81;100258.59;2239511;78;21099;-79
2022/05/26 01:12:44;;;;;;;5.22;3.47;;;;;;;9.33;81.14;100257.45;2240234;78;20996;-69
2022/05/26 01:15:51;;;;;;;4.58;4.17;;;;;;;9.37;81.18;100257.97;2247003;77;20998;-74
2022/05/26 01:19:25;;;;;;;4.22;3.83;;;;;;;9.41;81.11;100261.48;2242310;78;21021;-69
2022/05/26 01:23:16;;;;;;;6.60;5.92;;;;;;;9.45;81.16;100262.00;2200982;77;21017;-78
2022/05/26 01:26:43;;;;;;;6.03;4.45;;;;;;;9.49;81.45;100249.27;2246937;77;20963;-72
2022/05/26 01:30:25;;;;;;;6.97;5.53;;;;;;;9.54;81.37;100256.25;2225341;77;20946;-72
2022/05/26 01:33:35;;;;;;;7.08;6.20;;;;;;;9.58;81.76;100254.97;2238156;77;21034;-73
2022/05/26 01:36:51;;;;;;;7.40;6.33;;;;;;;9.62;81.96;100249.18;2242409;77;22232;-71
2022/05/26 01:40:03;;;;;;;9.30;6.72;;;;;;;9.67;82.10;100251.88;2246430;77;21605;-69
2022/05/26 01:43:27;;;;;;;12.15;8.73;;;;;;;9.71;82.25;100248.73;2244042;77;21546;-73
2022/05/26 01:46:33;;;;;;;6.90;6.12;;;;;;;9.75;82.24;100251.91;2248779;77;21049;-69
2022/05/26 01:49:45;;;;;;;7.75;6.83;;;;;;;9.78;82.30;100244.97;2247038;77;21017;-76
2022/05/26 01:53:19;;;;;;;10.15;6.45;;;;;;;9.81;82.29;100239.35;2248879;77;21008;-80
2022/05/26 01:56:35;;;;;;;6.65;6.05;;;;;;;9.85;82.33;100247.30;2241713;77;21036;-69
2022/05/26 01:59:44;;;;;;;7.97;6.80;;;;;;;9.90;82.41;100239.72;2245819;77;20959;-69
2022/05/26 02:02:54;;;;;;;10.82;6.45;;;;;;;9.96;82.51;100241.72;2240731;77;20934;-69
2022/05/26 02:06:00;;;;;;;9.40;6.12;;;;;;;10.00;82.42;100240.93;2246224;77;20953;-70
2022/05/26 02:09:09;;;;;;;9.18;6.95;;;;;;;10.00;82.30;100246.23;2249576;77;20935;-69
2022/05/26 02:12:25;;;;;;;10.95;6.80;;;;;;;10.02;82.40;100249.06;2244261;77;20946;-69
2022/05/26 02:15:43;;;;;;;10.80;7.20;;;;;;;10.03;82.17;100256.52;2239811;77;20958;-71
2022/05/26 02:18:56;;;;;;;9.35;7.10;;;;;;;9.99;82.01;100257.30;2247875;77;20978;-69
2022/05/26 02:22:24;;;;;;;8.95;6.97;;;;;;;9.96;82.01;100248.85;2244513;77;20926;-69
2022/05/26 02:25:27;;;;;;;7.78;6.00;;;;;;;9.91;81.96;100253.32;2253002;77;20974;-69
2022/05/26 02:29:51;;;;;;;7.05;6.35;;;;;;;9.90;81.82;100255.62;2252514;77;21570;-74
2022/05/26 02:31:36;;;;;;;7.30;6.20;;;;;;;9.88;81.75;100255.80;2242711;77;21048;-70
2022/05/26 02:34:41;;;;;;;8.13;6.40;;;;;;;9.87;81.79;100248.81;2249315;77;21568;-69
2022/05/26 02:37:47;;;;;;;11.33;6.25;;;;;;;9.86;81.68;100248.48;2243856;77;20986;-70
2022/05/26 02:40:52;;;;;;;6.80;6.00;;;;;;;9.85;81.66;100258.77;2252011;77;21558;-69
2022/05/26 02:43:54;;;;;;;6.78;6.17;;;;;;;9.81;81.59;100259.23;2250878;77;21032;-69
2022/05/26 02:47:06;;;;;;;10.48;6.62;;;;;;;9.80;81.99;100260.23;2242745;77;20923;-71
2022/05/26 02:50:16;;;;;;;13.88;7.30;;;;;;;9.81;82.21;100256.08;2245234;77;21037;-69
2022/05/26 02:53:25;;;;;;;8.83;6.67;;;;;;;9.79;82.19;100256.72;2247938;77;21013;-69
2022/05/26 02:56:52;;;;;;;10.03;7.72;;;;;;;9.79;82.45;100255.89;2241144;77;21029;-71
2022/05/26 03:00:03;;;;;;;7.80;7.10;;;;;;;9.80;82.56;100260.23;2238437;77;20986;-69
2022/05/26 03:03:25;;;;;;;8.80;7.90;;;;;;;9.79;82.49;100258.05;2247488;77;20993;-69
2022/05/26 03:06:37;;;;;;;11.00;7.42;;;;;;;9.81;82.58;100257.91;2237986;77;20989;-69
2022/05/26 03:09:41;;;;;;;8.68;7.40;;;;;;;9.84;82.56;100257.58;2247409;77;22593;-69
2022/05/26 03:12:43;;;;;;;8.13;7.35;;;;;;;9.85;82.49;100252.14;2243804;77;20993;-69
2022/05/26 03:15:44;;;;;;;8.08;6.80;;;;;;;9.94;82.59;100255.66;2243800;77;22222;-76
2022/05/26 03:18:46;;;;;;;8.50;7.35;;;;;;;10.01;82.57;100250.03;2236130;77;21009;-70
2022/05/26 03:21:48;;;;;;;8.80;7.03;;;;;;;10.15;82.71;100251.25;2244867;78;21023;-69
2022/05/26 03:24:51;;;;;;;10.32;6.33;;;;;;;10.52;82.72;100242.08;2242536;78;22268;-69
2022/05/26 03:27:53;;;;;;;8.13;6.28;;;;;;;10.52;82.72;100242.08;2242398;78;20942;-69
2022/05/26 03:30:55;;;;;;;7.92;7.12;;;;;;;10.80;82.68;100254.56;2243260;78;20966;-69
2022/05/26 03:40:50;;;;;;;7.12;5.78;;;;;;;11.83;82.07;100248.62;2240845;78;21024;-69
2022/05/26 03:43:57;;;;;;;6.50;5.67;;;;;;;12.17;81.59;100245.67;2244632;78;20943;-72
2022/05/26 03:46:59;;;;;;;5.42;4.95;;;;;;;12.17;80.59;100251.50;2240940;78;21027;-70
2022/05/26 03:50:03;;;;;;;5.90;4.97;;;;;;;12.07;80.12;100251.19;2243178;78;21429;-69
2022/05/26 03:53:04;;;;;;;5.15;4.70;;;;;;;11.88;79.64;100251.13;2242542;78;20986;-69
2022/05/26 03:56:06;;;;;;;6.67;5.28;;;;;;;11.87;79.82;100250.78;2245485;78;21077;-70
2022/05/26 03:59:07;;;;;;;5.45;5.00;;;;;;;12.20;80.27;100250.64;2255488;78;21056;-80
2022/05/26 04:02:08;;;;;;;5.00;4.60;;;;;;;12.48;79.48;100249.66;2226116;78;21033;-69
2022/05/26 04:05:12;;;;;;;9.65;5.10;;;;;;;12.47;79.16;100253.34;2251787;78;21042;-69
2022/05/26 04:08:13;;;;;;;6.20;5.40;;;;;;;12.39;78.61;100252.53;2248737;78;21468;-68
2022/05/26 04:11:15;;;;;;;7.03;5.50;;;;;;;12.27;78.66;100249.44;2249986;78;21073;-69
2022/05/26 04:14:16;;;;;;;6.35;4.97;;;;;;;12.20;78.68;100252.48;2248904;78;21028;-69
2022/05/26 04:17:18;;;;;;;8.83;5.12;;;;;;;12.15;78.77;100255.66;2248759;78;20977;-70
2022/05/26 04:20:22;;;;;;;5.55;4.60;;;;;;;12.11;78.73;100255.18;2248525;78;21533;-69
2022/05/26 04:23:23;;;;;;;5.42;4.55;;;;;;;12.08;78.73;100256.86;2247849;78;20938;-71
2022/05/26 04:26:24;;;;;;;5.70;4.67;;;;;;;12.15;78.88;100258.82;2248954;78;21005;-70
2022/05/26 04:29:26;;;;;;;5.37;4.80;;;;;;;12.52;79.61;100263.44;2248438;78;20993;-71
2022/05/26 04:32:28;;;;;;;6.62;4.67;;;;;;;13.35;80.23;100256.00;2248471;77;21545;-71
2022/05/26 04:35:29;;;;;;;8.60;5.05;;;;;;;14.36;80.23;100255.00;2248282;78;21041;-69
2022/05/26 04:38:32;;;;;;;5.03;4.53;;;;;;;15.25;79.48;100254.63;2249160;78;20926;-68
2022/05/26 04:41:33;;;;;;;5.35;4.58;;;;;;;16.10;78.88;100248.67;2247641;78;21017;-72
2022/05/26 04:44:42;;;;;;;6.30;3.95;;;;;;;16.69;77.59;100252.04;2253478;78;20952;-72
2022/05/26 04:47:43;;;;;;;5.08;3.77;;;;;;;16.87;76.52;100254.18;2249977;78;21041;-71
2022/05/26 04:50:44;;;;;;;5.45;3.37;;;;;;;17.25;76.09;100257.58;2252544;78;21064;-81
2022/05/26 04:53:46;;;;;;;4.53;3.83;;;;;;;17.48;75.18;100255.31;2247181;78;20974;-73
2022/05/26 04:56:48;;;;;;;5.40;3.70;;;;;;;17.35;74.18;100258.00;2252723;78;21029;-71
2022/05/26 04:59:50;;;;;;;5.55;3.60;;;;;;;17.21;73.91;100257.70;2250877;78;20957;-78
2022/05/26 05:02:53;;;;;;;7.55;3.77;;;;;;;17.10;73.52;100262.34;2250080;78;21068;-71
2022/05/26 05:05:56;;;;;;;7.03;4.28;;;;;;;16.99;73.24;100265.11;2252551;78;21495;-73
2022/05/26 05:08:57;;;;;;;5.17;4.03;;;;;;;16.99;73.13;100264.59;2250257;78;21064;-71
2022/05/26 05:11:58;;;;;;;4.47;3.65;;;;;;;16.93;72.87;100265.42;2251563;78;21524;-72
2022/05/26 05:15:03;;;;;;;4.30;3.80;;;;;;;17.05;72.68;100268.83;2248983;78;20969;-73
2022/05/26 05:18:05;;;;;;;4.97;3.70;;;;;;;17.32;72.89;100274.51;2244533;78;20989;-76
2022/05/26 05:21:16;;;;;;;5.30;4.20;;;;;;;17.53;72.33;100273.97;2246057;78;21036;-69
2022/05/26 05:24:44;;;;;;;5.30;3.92;;;;;;;17.67;71.95;100267.54;2249932;77;21009;-74
2022/05/26 05:27:53;;;;;;;5.87;3.67;;;;;;;17.85;72.03;100266.41;2249962;78;21056;-70
2022/05/26 05:31:03;;;;;;;6.03;3.50;;;;;;;18.21;71.64;100269.05;2253044;78;21605;-71
2022/05/26 05:34:09;;;;;;;4.20;2.87;;;;;;;18.31;70.84;100264.06;2249181;78;20949;-70
2022/05/26 05:37:11;;;;;;;4.40;3.42;;;;;;;18.28;70.40;100273.07;2253129;78;21531;-74
2022/05/26 05:40:13;;;;;;;6.15;3.17;;;;;;;18.23;70.05;100276.39;2250535;78;21672;-71
2022/05/26 05:43:14;;;;;;;7.42;3.25;;;;;;;18.06;69.62;100272.53;2248784;78;20989;-72
2022/05/26 05:46:19;;;;;;;4.42;3.17;;;;;;;17.97;69.70;100271.13;2248033;78;20969;-71
2022/05/26 05:49:22;;;;;;;5.35;3.12;;;;;;;17.82;69.78;100272.69;2247908;78;21017;-71
2022/05/26 05:52:24;;;;;;;3.12;2.80;;;;;;;17.73;69.77;100276.61;2247857;78;20989;-71
2022/05/26 05:55:26;;;;;;;5.37;2.90;;;;;;;17.64;69.49;100282.72;2224626;78;20969;-73
2022/05/26 05:58:27;;;;;;;6.55;3.17;;;;;;;17.56;69.65;100281.59;2246517;78;21037;-74
2022/05/26 06:01:28;;;;;;;3.35;2.90;;;;;;;17.40;69.65;100280.16;2243811;78;21080;-71
2022/05/26 06:04:30;;;;;;;6.92;3.27;;;;;;;17.36;69.84;100279.75;2248290;78;21550;-71
2022/05/26 06:07:32;;;;;;;3.70;2.92;;;;;;;17.29;70.05;100277.61;2248288;78;21422;-70
2022/05/26 06:10:33;;;;;;;2.75;2.55;;;;;;;17.22;70.06;100276.77;2247224;78;21016;-75
2022/05/26 06:13:35;;;;;;;3.83;2.70;;;;;;;17.17;69.91;100287.28;2252120;78;20989;-70
2022/05/26 06:16:37;;;;;;;4.40;2.55;;;;;;;17.18;70.05;100289.77;2250449;78;21044;-71
2022/05/26 06:19:40;;;;;;;5.80;2.40;;;;;;;17.17;69.70;100289.44;2249468;78;21018;-70
2022/05/26 06:22:44;;;;;;;2.95;2.42;;;;;;;17.17;69.50;100291.30;2248293;78;21550;-71
2022/05/26 06:25:45;;;;;;;3.00;2.33;;;;;;;17.17;69.86;100287.28;2250410;78;21452;-73
2022/05/26 06:38:42;;;;;;;3.95;2.25;;;;;;;17.11;68.83;100300.17;2210948;78;21104;-74
2022/05/26 06:45:06;;;;;;;4.33;2.60;;;;;;;17.12;68.65;100295.11;2246177;78;20993;-71
2022/05/26 06:48:08;;;;;;;6.03;2.40;;;;;;;17.17;69.26;100300.69;2247115;78;21515;-81
2022/05/26 06:51:09;;;;;;;4.80;2.50;;;;;;;17.23;68.73;100298.52;2245506;78;20999;-71
2022/05/26 06:54:11;;;;;;;3.05;2.67;;;;;;;17.35;68.77;100298.23;2247882;78;20965;-73
2022/05/26 06:57:15;;;;;;;7.03;3.25;;;;;;;17.52;68.24;100299.16;2246835;78;21006;-71
2022/05/26 07:00:18;;;;;;;6.47;2.62;;;;;;;17.62;68.52;100290.14;2243703;78;21064;-70
2022/05/26 07:03:20;;;;;;;6.50;2.12;;;;;;;17.84;68.05;100298.81;2249292;78;21025;-75
2022/05/26 07:06:25;;;;;;;4.33;2.30;;;;;;;18.09;67.50;100297.61;2249237;78;21444;-83
2022/05/26 07:09:27;;;;;;;4.30;2.17;;;;;;;18.41;67.03;100296.34;2252047;78;21013;-71
2022/05/26 07:12:28;;;;;;;5.15;1.90;;;;;;;18.79;66.51;100291.02;2244289;78;21024;-74
2022/05/26 07:15:30;;;;;;;1.75;1.60;;;;;;;19.17;65.79;100296.31;2245000;78;21005;-73
2022/05/26 07:18:31;;;;;;;4.12;1.72;;;;;;;19.51;64.46;100296.04;2245655;78;20970;-74
2022/05/26 07:21:33;;;;;;;4.03;1.90;;;;;;;19.78;63.86;100303.38;2252793;77;21021;-71
2022/05/26 07:24:35;;;;;;;2.10;1.40;;;;;;;20.00;63.27;100307.81;2248978;77;21024;-71
2022/05/26 07:27:37;;;;;;;4.90;1.77;;;;;;;20.21;62.22;100300.61;2251653;77;21272;-70
2022/05/26 07:30:40;;;;;;;2.15;1.52;;;;;;;20.40;61.40;100298.73;2249960;77;20935;-73
2022/05/26 07:33:42;;;;;;;5.10;1.80;;;;;;;20.44;59.06;100301.28;2247010;77;21001;-73
2022/05/26 07:43:26;;;;;;;2.15;1.50;;;;;;;20.62;55.21;100295.58;2250467;77;21005;-72
2022/05/26 07:46:27;;;;;;;7.37;1.32;;;;;;;20.67;56.44;100293.03;2249930;77;21560;-72
2022/05/26 07:49:28;;;;;;;2.98;1.52;;;;;;;20.80;56.12;100296.86;2246490;77;21409;-72
2022/05/26 07:52:30;;;;;;;7.83;1.32;;;;;;;20.96;55.23;100294.86;2252468;77;21025;-72
2022/05/26 07:55:33;;;;;;;5.47;1.42;;;;;;;21.05;53.27;100294.81;2246714;77;20942;-72
2022/05/26 07:58:35;;;;;;;2.35;1.17;;;;;;;20.98;52.89;100295.47;2250619;77;20993;-72
2022/05/26 08:01:36;;;;;;;3.50;1.30;;;;;;;21.17;53.82;100302.11;2245410;77;20938;-75
2022/05/26 08:04:38;;;;;;;5.17;1.92;;;;;;;21.18;52.85;100298.37;2256127;77;20980;-72
2022/05/26 08:07:41;;;;;;;1.75;1.17;;;;;;;21.10;51.92;100294.66;2246149;77;20971;-74
2022/05/26 08:10:43;;;;;;;9.50;1.45;;;;;;;21.07;51.48;100281.11;2247728;77;20946;-72
2022/05/26 08:13:44;;;;;;;3.92;1.25;;;;;;;21.15;51.34;100288.88;2252883;77;20970;-84
2022/05/26 08:16:45;;;;;;;1.67;1.35;;;;;;;21.36;51.80;100285.31;2248534;77;20931;-77
2022/05/26 08:19:47;;;;;;;2.92;1.52;;;;;;;21.63;50.23;100277.07;2247280;77;20998;-79
2022/05/26 08:22:48;;;;;;;4.17;1.30;;;;;;;21.57;49.72;100279.88;2246906;77;22371;-76
2022/05/26 08:25:50;;;;;;;0.80;0.80;;;;;;;21.59;50.47;100285.87;2244617;78;21076;-77
2022/05/26 08:28:51;;;;;;;5.08;1.30;;;;;;;21.62;49.70;100293.50;2250437;78;20989;-80
2022/05/26 08:31:53;;;;;;;6.78;1.40;;;;;;;21.66;48.38;100290.10;2243946;78;21025;-77
2022/05/26 08:35:00;;;;;;;3.22;1.35;;;;;;;21.62;48.22;100296.19;2244033;78;20938;-77
2022/05/26 08:38:01;;;;;;;4.87;1.25;;;;;;;21.65;48.84;100301.97;2242394;78;20946;-77
2022/05/26 08:41:04;;;;;;;2.83;0.85;;;;;;;21.77;47.90;100289.80;2243366;78;20986;-77
2022/05/26 08:44:23;;;;;;;2.60;1.05;;;;;;;21.81;47.89;100295.55;2239600;78;20995;-77
2022/05/26 08:47:33;;;;;;;2.45;1.00;;;;;;;22.02;47.95;100296.29;2239503;78;21029;-75
2022/05/26 08:50:35;;;;;;;3.43;1.00;;;;;;;22.32;48.01;100300.16;2245439;78;21017;-76
2022/05/26 08:53:39;;;;;;;1.42;0.72;;;;;;;22.51;48.04;100304.05;2239967;78;20928;-77
2022/05/26 08:56:42;;;;;;;1.87;0.90;;;;;;;22.33;44.47;100300.47;2240302;78;21002;-77
2022/05/26 08:59:46;;;;;;;2.15;1.02;;;;;;;21.90;46.33;100303.04;2243301;78;21009;-76
2022/05/26 09:02:53;;;;;;;2.25;1.05;;;;;;;22.00;45.26;100297.05;2249591;77;20993;-77
2022/05/26 09:06:09;;;;;;;3.92;1.07;;;;;;;21.87;45.25;100302.16;2239843;78;21584;-76
2022/05/26 09:15:51;;;;;;;;;;;;;;;21.94;45.05;100312.33;2248081;78;20966;-82
2022/05/26 09:19:19;;;;;;;4.03;1.10;;;;;;;22.03;46.19;100304.67;2251945;78;20196;-79
2022/05/26 09:22:44;;;;;;;2.85;1.30;;;;;;;22.04;44.71;100304.95;2249710;77;20982;-78
2022/05/26 09:26:07;;;;;;;5.58;1.02;;;;;;;22.06;45.22;100297.44;2255252;77;21030;-79
2022/05/26 09:29:19;;;;;;;3.80;1.10;;;;;;;22.12;44.17;100301.08;2227379;77;20956;-75
2022/05/26 09:32:26;;;;;;;2.92;0.90;;;;;;;22.07;45.30;100294.20;2228588;77;21024;-76
2022/05/26 09:35:35;;;;;;;3.55;0.98;;;;;;;22.23;44.93;100304.84;2258510;77;21437;-75
2022/05/26 09:38:40;;;;;;;3.67;1.07;;;;;;;22.48;44.61;100280.20;2255841;77;21044;-76
2022/05/26 09:41:57;;;;;;;7.12;1.30;;;;;;;22.67;44.38;100293.82;2257287;77;21037;-75
2022/05/26 09:45:13;;;;;;;1.52;1.10;;;;;;;22.98;44.23;100295.75;2259448;77;20989;-77
2022/05/26 09:48:32;;;;;;;1.62;0.90;;;;;;;22.99;43.61;100302.26;2264993;77;20958;-76
2022/05/26 09:51:48;;;;;;;2.25;1.10;;;;;;;22.78;44.16;100299.70;2260057;77;21041;-78
2022/05/26 09:55:10;;;;;;;2.77;1.05;;;;;;;22.83;45.32;100309.77;2257957;77;21623;-78
2022/05/26 09:58:34;;;;;;;4.30;1.07;;;;;;;22.75;43.26;100304.25;2195864;77;21014;-78
2022/05/26 10:01:43;;;;;;;1.02;0.90;;;;;;;22.90;44.95;100294.77;2254043;77;21730;-78
2022/05/26 10:05:16;;;;;;;1.07;1.00;;;;;;;22.59;43.96;100303.13;2228894;77;21041;-77
2022/05/26 10:08:32;;;;;;;2.80;1.00;;;;;;;22.38;43.64;100298.38;2265354;77;20949;-78
2022/05/26 10:12:01;;;;;;;3.60;1.07;;;;;;;22.06;43.91;100314.19;2255216;77;21866;-81
2022/05/26 10:15:47;;;;;;;8.18;0.90;;;;;;;21.65;44.67;100299.77;2255463;77;21280;-78
2022/05/26 10:19:28;;;;;;;3.30;1.00;;;;;;;21.27;44.56;100318.56;2266024;77;21541;-78
2022/05/26 10:23:07;;;;;;;3.55;1.32;;;;;;;20.87;45.59;100319.17;2247971;77;21448;-77
2022/05/26 10:26:42;;;;;;;10.78;2.87;;;;;;;20.89;45.70;100314.38;2246871;77;21547;-80
2022/05/26 10:30:21;;;;;;;1.62;1.00;;;;;;;20.90;46.46;100321.41;2236852;78;21108;-77
2022/05/26 10:34:03;;;;;;;2.17;1.10;;;;;;;20.97;46.11;100319.95;2243760;78;21017;-78
2022/05/26 10:37:18;;;;;;;2.90;0.93;;;;;;;20.96;46.61;100322.37;2246935;78;21006;-78
2022/05/26 10:40:40;;;;;;;1.42;1.00;;;;;;;20.84;46.10;100321.52;2238912;78;21017;-82
2022/05/26 10:43:58;;;;;;;1.95;1.07;;;;;;;20.68;45.85;100328.36;2246256;78;20950;-78
2022/05/26 10:47:05;;;;;;;4.42;1.07;;;;;;;20.58;46.50;100321.65;2242566;78;21048;-78
2022/05/26 10:50:29;;;;;;;8.43;1.02;;;;;;;20.68;46.57;100318.92;2245334;77;21037;-78
2022/05/26 10:54:01;;;;;;;1.60;0.98;;;;;;;20.75;46.94;100318.30;2237758;78;21024;-76
2022/05/26 10:57:17;;;;;;;3.08;0.85;;;;;;;20.90;47.35;100334.08;2253593;78;21822;-78
2022/05/26 11:00:29;;;;;;;3.95;0.90;;;;;;;20.93;47.35;100332.27;2230162;78;21530;-78
2022/05/26 11:03:45;;;;;;;1.32;0.90;;;;;;;21.11;47.57;100334.88;2244450;78;20975;-79
2022/05/26 11:06:51;;;;;;;2.33;0.88;;;;;;;21.44;47.39;100330.88;2214122;78;20927;-78
2022/05/26 11:10:11;;;;;;;3.22;0.82;;;;;;;21.57;46.62;100323.06;2239485;78;21426;-77
2022/05/26 11:13:41;;;;;;;1.22;0.80;;;;;;;21.90;46.50;100332.75;2241908;78;20997;-79
2022/05/26 11:20:27;;;;;;;1.55;1.00;;;;;;;22.08;46.40;100333.16;2244368;78;21006;-70
2022/05/26 11:23:35;;;;;;;2.95;1.00;;;;;;;21.89;46.27;100332.47;2242464;78;21049;-71
2022/05/26 11:26:53;;;;;;;1.10;0.90;;;;;;;21.68;45.70;100327.15;2243164;78;21048;-71
2022/05/26 11:30:06;;;;;;;1.75;0.98;;;;;;;21.24;45.42;100336.57;2243186;78;20994;-74
2022/05/26 11:36:49;;;;;;;2.90;0.88;;;;;;;20.77;46.09;100332.37;2247168;78;21464;-72
2022/05/26 11:39:59;;;;;;;2.98;1.00;;;;;;;20.96;46.76;100336.67;2212077;78;21033;-71
2022/05/26 11:43:02;;;;;;;4.83;0.90;;;;;;;20.93;46.32;100324.17;2238429;78;21065;-70
2022/05/26 11:46:04;;;;;;;3.15;0.70;;;;;;;20.84;46.29;100330.42;2248715;78;21100;-71
2022/05/26 11:49:05;;;;;;;1.42;0.70;;;;;;;20.75;46.11;100334.47;2244978;78;20954;-71
2022/05/26 11:52:38;;;;;;;2.67;1.10;;;;;;;20.76;46.57;100339.65;2241406;78;21067;-74
2022/05/26 11:55:55;;;;;;;4.03;0.90;;;;;;;20.72;45.90;100333.08;2240859;78;21057;-72
2022/05/26 11:59:33;;;;;;;0.72;0.72;;;;;;;20.66;45.79;100331.80;2238398;78;20986;-74
2022/05/26 12:02:37;;;;;;;2.65;1.00;;;;;;;20.70;46.31;100327.62;2239415;78;21016;-72
2022/05/26 12:05:42;;;;;;;2.22;0.90;;;;;;;20.88;47.18;100326.20;2251343;78;20981;-71
2022/05/26 12:08:58;;;;;;;0.80;0.80;;;;;;;21.07;46.66;100330.20;2228407;78;21551;-73
2022/05/26 12:12:19;;;;;;;1.67;0.95;;;;;;;21.10;45.52;100317.06;2240572;78;20973;-71
2022/05/26 12:15:24;;;;;;;2.60;1.02;;;;;;;21.08;46.13;100315.65;2241423;78;20997;-70
2022/05/26 12:18:39;;;;;;;1.42;0.90;;;;;;;21.04;46.94;100325.55;2221844;78;21512;-70
2022/05/26 12:21:46;;;;;;;3.55;0.80;;;;;;;20.91;46.26;100331.67;2241886;78;21440;-71
2022/05/26 12:25:12;;;;;;;8.28;1.17;;;;;;;20.69;45.26;100334.86;2247240;77;20978;-69
2022/05/26 12:28:31;;;;;;;3.17;1.20;;;;;;;20.50;45.75;100337.28;2249905;78;20955;-71
2022/05/26 12:31:33;;;;;;;1.77;0.90;;;;;;;20.78;46.20;100330.00;2244607;77;20984;-70
2022/05/26 12:35:00;;;;;;;3.90;0.80;;;;;;;20.93;45.99;100323.64;2236267;78;21017;-69
2022/05/26 12:38:23;;;;;;;5.45;0.95;;;;;;;20.93;45.84;100318.25;2228927;78;20950;-74
2022/05/26 12:41:56;;;;;;;2.08;0.90;;;;;;;20.98;46.35;100318.92;2249703;78;20963;-69
2022/05/26 12:45:24;;;;;;;1.60;0.80;;;;;;;20.99;46.01;100321.38;2246959;78;21001;-71
2022/05/26 12:49:14;;;;;;;2.02;0.88;;;;;;;20.96;45.88;100312.39;2246227;78;21089;-70
2022/05/26 12:52:26;;;;;;;1.62;0.90;;;;;;;21.17;45.79;100309.67;2249249;78;20911;-72
2022/05/26 12:55:46;;;;;;;0.85;0.70;;;;;;;21.45;45.74;100303.64;2226592;78;20990;-73
2022/05/26 12:58:55;;;;;;;2.33;0.70;;;;;;;21.53;45.38;100297.61;2242824;78;20946;-71
2022/05/26 13:01:56;;;;;;;2.17;1.03;;;;;;;21.58;44.87;100295.85;2246473;78;21453;-70
2022/05/26 13:04:58;;;;;;;1.47;0.88;;;;;;;21.52;44.17;100292.75;2248615;78;20986;-69
2022/05/26 13:08:00;;;;;;;4.37;0.85;;;;;;;21.31;44.42;100298.14;2243420;78;20938;-71
2022/05/26 13:11:03;;;;;;;5.53;0.85;;;;;;;21.20;43.87;100300.30;2249051;78;21077;-70
2022/05/26 13:14:16;;;;;;;1.82;0.75;;;;;;;21.38;45.17;100292.15;2247330;78;21029;-70
2022/05/26 13:17:24;;;;;;;4.83;1.00;;;;;;;21.61;45.01;100299.96;2250416;78;20958;-70
2022/05/26 13:20:36;;;;;;;6.67;1.07;;;;;;;21.73;44.66;100289.97;2250036;78;21012;-71
2022/05/26 13:23:42;;;;;;;1.90;0.80;;;;;;;21.75;44.65;100293.27;2240862;77;21555;-69
2022/05/26 13:26:45;;;;;;;1.17;0.72;;;;;;;21.91;44.98;100291.73;2184422;80;21015;-69
2022/05/26 13:29:49;;;;;;;2.17;0.78;;;;;;;21.94;42.82;100296.66;2189323;80;21577;-70
2022/05/26 13:33:08;;;;;;;2.33;0.80;;;;;;;21.59;42.84;100293.43;2188170;80;21038;-70
2022/05/26 13:36:22;;;;;;;2.37;1.03;;;;;;;21.34;42.54;100290.92;2148776;82;21012;-74
2022/05/26 13:39:26;;;;;;;1.12;0.68;;;;;;;21.24;43.25;100297.44;2147245;81;21370;-76
2022/05/26 13:42:28;;;;;;;2.98;0.75;;;;;;;21.17;42.38;100289.97;2158778;81;21017;-72
2022/05/26 13:45:34;;;;;;;4.62;0.90;;;;;;;21.10;42.62;100300.06;2151488;81;21014;-70
2022/05/26 13:48:39;;;;;;;4.20;0.60;;;;;;;21.08;42.96;100290.84;2155868;81;21017;-70
2022/05/26 13:51:45;;;;;;;2.22;1.00;;;;;;;21.03;43.00;100294.25;2250458;78;20997;-71
2022/05/26 13:54:59;;;;;;;2.98;0.62;;;;;;;21.08;43.27;100292.72;2243205;78;20990;-70
2022/05/26 13:58:01;;;;;;;1.85;0.98;;;;;;;21.12;43.07;100289.84;2247769;78;21040;-71
2022/05/26 14:01:09;;;;;;;2.72;1.00;;;;;;;21.13;42.93;100284.76;2234060;78;21366;-70
2022/05/26 14:04:25;;;;;;;1.10;0.75;;;;;;;21.14;42.63;100281.81;2245769;78;20934;-71
2022/05/26 14:07:44;;;;;;;0.82;0.80;;;;;;;21.23;43.17;100272.84;2243022;78;20997;-71
2022/05/26 14:10:50;;;;;;;2.33;0.80;;;;;;;21.27;43.27;100267.30;2241466;77;21556;-70
2022/05/26 14:13:52;;;;;;;2.83;0.72;;;;;;;21.41;42.59;100270.63;2235837;78;21544;-77
2022/05/26 14:16:54;;;;;;;1.60;0.90;;;;;;;21.55;42.86;100279.31;2245579;78;20965;-72
2022/05/26 14:20:03;;;;;;;0.78;0.72;;;;;;;21.65;42.42;100268.72;2243903;78;20993;-70
2022/05/26 14:23:07;;;;;;;3.22;0.80;;;;;;;21.69;42.71;100272.61;2244983;78;21010;-71
2022/05/26 14:26:31;;;;;;;0.93;0.80;;;;;;;21.73;41.99;100268.36;2245440;78;21544;-76
2022/05/26 14:29:36;;;;;;;1.27;0.70;;;;;;;21.61;41.79;100267.03;2244464;77;21018;-70
2022/05/26 14:32:38;;;;;;;2.80;0.78;;;;;;;21.39;42.37;100269.49;2246596;78;21038;-76
2022/05/26 14:35:39;;;;;;;2.08;0.70;;;;;;;21.31;42.20;100259.02;2245520;78;20926;-78
2022/05/26 14:38:40;;;;;;;2.52;1.20;;;;;;;21.22;42.32;100268.52;2244678;78;20946;-71
2022/05/26 14:41:42;;;;;;;0.70;0.70;;;;;;;21.12;42.62;100273.15;2242250;78;20927;-72
2022/05/26 14:44:49;;;;;;;2.72;0.80;;;;;;;21.01;42.91;100280.16;2242711;77;21452;-72
2022/05/26 14:47:50;;;;;;;1.85;0.90;;;;;;;20.94;42.78;100272.69;2245703;78;20958;-72
2022/05/26 14:50:51;;;;;;;2.08;1.05;;;;;;;20.90;43.00;100277.44;2247773;77;21038;-72
2022/05/26 14:57:14;;;;;;;3.10;1.00;;;;;;;20.87;42.92;100274.68;2243222;78;20956;-70
2022/05/26 15:00:21;;;;;;;1.77;0.82;;;;;;;20.85;43.02;100271.91;2250003;78;20986;-71
2022/05/26 15:03:23;;;;;;;2.17;0.90;;;;;;;20.82;43.42;100275.89;2242501;77;21389;-71
2022/05/26 15:06:26;;;;;;;0.82;0.80;;;;;;;20.79;43.52;100275.82;2242556;78;21378;-71
2022/05/26 15:09:29;;;;;;;1.35;0.70;;;;;;;20.75;43.66;100269.76;2243225;78;21009;-70
2022/05/26 15:12:31;;;;;;;2.17;0.90;;;;;;;20.58;42.95;100274.98;2239797;78;20919;-70
2022/05/26 15:15:35;;;;;;;2.27;0.72;;;;;;;20.47;43.04;100277.06;2247349;77;20982;-71
2022/05/26 15:18:37;;;;;;;0.88;0.78;;;;;;;20.40;43.25;100275.82;2246508;78;21457;-70
2022/05/26 15:21:39;;;;;;;1.47;0.60;;;;;;;20.36;43.22;100275.45;2245993;78;20970;-71
2022/05/26 15:24:41;;;;;;;3.90;0.70;;;;;;;20.37;43.21;100281.67;2248759;77;21033;-70